sensor_id;sensor_type;location;lat;lon;timestamp;temperature;humidity
65472;DHT22;52068;50.710;14.492;2023-08-01T00:02:03;23.68;53.06
65472;DHT22;52068;50.710;14.492;2023-08-01T00:04:28;23.72;53.13
65472;DHT22;52068;50.710;14.492;2023-08-01T00:06:54;23.69;53.13
65472;DHT22;52068;50.710;14.492;2023-08-01T00:09:20;23.65;53.13
65472;DHT22;52068;50.710;14.492;2023-08-01T00:11:46;23.65;53.08
65472;DHT22;52068;50.710;14.492;2023-08-01T00:14:11;23.66;53.16
65472;DHT22;52068;50.710;14.492;2023-08-01T00:16:36;23.68;53.22
65472;DHT22;52068;50.710;14.492;2023-08-01T00:19:02;23.64;53.28
65472;DHT22;52068;50.710;14.492;2023-08-01T00:21:27;23.68;53.21
65472;DHT22;52068;50.710;14.492;2023-08-01T00:23:53;23.68;53.26
65472;DHT22;52068;50.710;14.492;2023-08-01T00:26:18;23.68;53.25
65472;DHT22;52068;50.710;14.492;2023-08-01T00:28:43;23.66;53.26
65472;DHT22;52068;50.710;14.492;2023-08-01T00:31:09;23.69;53.26
65472;DHT22;52068;50.710;14.492;2023-08-01T00:33:34;23.66;53.31
65472;DHT22;52068;50.710;14.492;2023-08-01T00:36:00;23.68;53.27
65472;DHT22;52068;50.710;14.492;2023-08-01T00:38:26;23.69;53.25
65472;DHT22;52068;50.710;14.492;2023-08-01T00:40:51;23.69;53.23
65472;DHT22;52068;50.710;14.492;2023-08-01T00:43:17;23.69;53.25
65472;DHT22;52068;50.710;14.492;2023-08-01T00:45:42;23.69;53.25
65472;DHT22;52068;50.710;14.492;2023-08-01T00:48:08;23.68;53.26
65472;DHT22;52068;50.710;14.492;2023-08-01T00:50:34;23.66;53.28
65472;DHT22;52068;50.710;14.492;2023-08-01T00:53:00;23.69;53.30
65472;DHT22;52068;50.710;14.492;2023-08-01T00:55:27;23.65;53.32
65472;DHT22;52068;50.710;14.492;2023-08-01T00:57:54;23.66;53.28
65472;DHT22;52068;50.710;14.492;2023-08-01T01:00:19;23.65;53.26
65472;DHT22;52068;50.710;14.492;2023-08-01T01:02:45;23.68;53.26
65472;DHT22;52068;50.710;14.492;2023-08-01T01:05:10;23.66;53.22
65472;DHT22;52068;50.710;14.492;2023-08-01T01:07:36;23.68;53.25
65472;DHT22;52068;50.710;14.492;2023-08-01T01:10:02;23.66;53.21
65472;DHT22;52068;50.710;14.492;2023-08-01T01:12:27;23.65;53.21
65472;DHT22;52068;50.710;14.492;2023-08-01T01:14:53;23.66;53.21
65472;DHT22;52068;50.710;14.492;2023-08-01T01:17:18;23.64;53.26
65472;DHT22;52068;50.710;14.492;2023-08-01T01:19:43;23.65;53.18
65472;DHT22;52068;50.710;14.492;2023-08-01T01:22:10;23.65;53.17
65472;DHT22;52068;50.710;14.492;2023-08-01T01:24:35;23.66;53.20
65472;DHT22;52068;50.710;14.492;2023-08-01T01:27:03;23.64;53.16
65472;DHT22;52068;50.710;14.492;2023-08-01T01:29:30;23.62;53.20
65472;DHT22;52068;50.710;14.492;2023-08-01T01:31:56;23.65;53.23
65472;DHT22;52068;50.710;14.492;2023-08-01T01:34:22;23.65;53.24
65472;DHT22;52068;50.710;14.492;2023-08-01T01:36:48;23.66;53.26
65472;DHT22;52068;50.710;14.492;2023-08-01T01:39:13;23.66;53.22
65472;DHT22;52068;50.710;14.492;2023-08-01T01:41:38;23.65;53.24
65472;DHT22;52068;50.710;14.492;2023-08-01T01:44:04;23.64;53.22
65472;DHT22;52068;50.710;14.492;2023-08-01T01:46:29;23.66;53.24
65472;DHT22;52068;50.710;14.492;2023-08-01T01:48:54;23.65;53.19
65472;DHT22;52068;50.710;14.492;2023-08-01T01:51:25;23.64;53.22
65472;DHT22;52068;50.710;14.492;2023-08-01T01:53:51;23.65;53.28
65472;DHT22;52068;50.710;14.492;2023-08-01T01:56:16;23.64;53.25
65472;DHT22;52068;50.710;14.492;2023-08-01T01:58:41;23.65;53.24
65472;DHT22;52068;50.710;14.492;2023-08-01T02:01:07;23.65;53.24
65472;DHT22;52068;50.710;14.492;2023-08-01T02:03:32;23.66;53.24
65472;DHT22;52068;50.710;14.492;2023-08-01T02:05:57;23.66;53.25
65472;DHT22;52068;50.710;14.492;2023-08-01T02:08:23;23.65;53.21
65472;DHT22;52068;50.710;14.492;2023-08-01T02:10:48;23.65;53.17
65472;DHT22;52068;50.710;14.492;2023-08-01T02:13:14;23.65;53.15
65472;DHT22;52068;50.710;14.492;2023-08-01T02:15:39;23.64;53.12
65472;DHT22;52068;50.710;14.492;2023-08-01T02:18:05;23.62;53.08
65472;DHT22;52068;50.710;14.492;2023-08-01T02:20:30;23.64;53.12
65472;DHT22;52068;50.710;14.492;2023-08-01T02:22:55;23.65;53.15
65472;DHT22;52068;50.710;14.492;2023-08-01T02:25:21;23.64;53.18
65472;DHT22;52068;50.710;14.492;2023-08-01T02:27:46;23.62;53.23
65472;DHT22;52068;50.710;14.492;2023-08-01T02:30:11;23.64;53.24
65472;DHT22;52068;50.710;14.492;2023-08-01T02:32:37;23.62;53.25
65472;DHT22;52068;50.710;14.492;2023-08-01T02:35:02;23.62;53.25
65472;DHT22;52068;50.710;14.492;2023-08-01T02:37:28;23.59;53.28
65472;DHT22;52068;50.710;14.492;2023-08-01T02:39:53;23.61;53.25
65472;DHT22;52068;50.710;14.492;2023-08-01T02:42:18;23.59;53.28
65472;DHT22;52068;50.710;14.492;2023-08-01T02:44:44;23.61;53.30
65472;DHT22;52068;50.710;14.492;2023-08-01T02:47:09;23.62;53.24
65472;DHT22;52068;50.710;14.492;2023-08-01T02:49:34;23.61;53.25
65472;DHT22;52068;50.710;14.492;2023-08-01T02:52:00;23.62;53.22
65472;DHT22;52068;50.710;14.492;2023-08-01T02:54:25;23.59;53.28
65472;DHT22;52068;50.710;14.492;2023-08-01T02:56:50;23.62;53.38
65472;DHT22;52068;50.710;14.492;2023-08-01T02:59:16;23.62;53.39
65472;DHT22;52068;50.710;14.492;2023-08-01T03:01:43;23.61;53.35
65472;DHT22;52068;50.710;14.492;2023-08-01T03:04:08;23.59;53.34
65472;DHT22;52068;50.710;14.492;2023-08-01T03:06:34;23.58;53.32
65472;DHT22;52068;50.710;14.492;2023-08-01T03:08:59;23.58;53.28
65472;DHT22;52068;50.710;14.492;2023-08-01T03:11:26;23.58;53.33
65472;DHT22;52068;50.710;14.492;2023-08-01T03:13:51;23.57;53.30
65472;DHT22;52068;50.710;14.492;2023-08-01T03:16:17;23.55;53.28
65472;DHT22;52068;50.710;14.492;2023-08-01T03:18:43;23.57;53.25
65472;DHT22;52068;50.710;14.492;2023-08-01T03:21:08;23.58;53.28
65472;DHT22;52068;50.710;14.492;2023-08-01T03:23:34;23.58;53.33
65472;DHT22;52068;50.710;14.492;2023-08-01T03:25:59;23.57;53.32
65472;DHT22;52068;50.710;14.492;2023-08-01T03:28:26;23.59;53.38
65472;DHT22;52068;50.710;14.492;2023-08-01T03:30:51;23.57;53.41
65472;DHT22;52068;50.710;14.492;2023-08-01T03:33:18;23.55;53.31
65472;DHT22;52068;50.710;14.492;2023-08-01T03:35:44;23.58;53.36
65472;DHT22;52068;50.710;14.492;2023-08-01T03:38:09;23.59;53.35
65472;DHT22;52068;50.710;14.492;2023-08-01T03:40:35;23.58;53.35
65472;DHT22;52068;50.710;14.492;2023-08-01T03:43:00;23.58;53.39
65472;DHT22;52068;50.710;14.492;2023-08-01T03:45:25;23.58;53.35
65472;DHT22;52068;50.710;14.492;2023-08-01T03:47:51;23.57;53.38
65472;DHT22;52068;50.710;14.492;2023-08-01T03:50:16;23.61;53.29
65472;DHT22;52068;50.710;14.492;2023-08-01T03:52:42;23.57;53.29
65472;DHT22;52068;50.710;14.492;2023-08-01T03:55:07;23.58;53.24
65472;DHT22;52068;50.710;14.492;2023-08-01T03:57:33;23.59;53.28
65472;DHT22;52068;50.710;14.492;2023-08-01T03:59:59;23.57;53.29
65472;DHT22;52068;50.710;14.492;2023-08-01T04:02:25;23.58;53.28
65472;DHT22;52068;50.710;14.492;2023-08-01T04:04:50;23.54;53.24
65472;DHT22;52068;50.710;14.492;2023-08-01T04:07:15;23.58;53.24
65472;DHT22;52068;50.710;14.492;2023-08-01T04:09:41;23.57;53.41
65472;DHT22;52068;50.710;14.492;2023-08-01T04:12:06;23.57;53.48
65472;DHT22;52068;50.710;14.492;2023-08-01T04:14:34;23.55;53.51
65472;DHT22;52068;50.710;14.492;2023-08-01T04:16:59;23.55;53.53
65472;DHT22;52068;50.710;14.492;2023-08-01T04:19:25;23.55;53.43
65472;DHT22;52068;50.710;14.492;2023-08-01T04:21:50;23.55;53.34
65472;DHT22;52068;50.710;14.492;2023-08-01T04:24:16;23.57;53.32
65472;DHT22;52068;50.710;14.492;2023-08-01T04:26:41;23.58;53.33
65472;DHT22;52068;50.710;14.492;2023-08-01T04:29:07;23.55;53.41
65472;DHT22;52068;50.710;14.492;2023-08-01T04:31:32;23.57;53.37
65472;DHT22;52068;50.710;14.492;2023-08-01T04:33:58;23.59;53.33
65472;DHT22;52068;50.710;14.492;2023-08-01T04:36:23;23.58;53.26
65472;DHT22;52068;50.710;14.492;2023-08-01T04:38:48;23.57;53.20
65472;DHT22;52068;50.710;14.492;2023-08-01T04:41:14;23.58;53.21
65472;DHT22;52068;50.710;14.492;2023-08-01T04:43:39;23.58;53.20
65472;DHT22;52068;50.710;14.492;2023-08-01T04:46:05;23.57;53.19
65472;DHT22;52068;50.710;14.492;2023-08-01T04:48:30;23.57;53.19
65472;DHT22;52068;50.710;14.492;2023-08-01T04:50:55;23.58;53.19
65472;DHT22;52068;50.710;14.492;2023-08-01T04:53:21;23.55;53.15
65472;DHT22;52068;50.710;14.492;2023-08-01T04:55:46;23.57;53.13
65472;DHT22;52068;50.710;14.492;2023-08-01T04:58:11;23.57;53.12
65472;DHT22;52068;50.710;14.492;2023-08-01T05:00:37;23.57;53.15
65472;DHT22;52068;50.710;14.492;2023-08-01T05:03:03;23.55;53.11
65472;DHT22;52068;50.710;14.492;2023-08-01T05:05:28;23.58;53.11
65472;DHT22;52068;50.710;14.492;2023-08-01T05:07:54;23.57;53.14
65472;DHT22;52068;50.710;14.492;2023-08-01T05:10:19;23.55;53.12
65472;DHT22;52068;50.710;14.492;2023-08-01T05:12:44;23.52;53.19
65472;DHT22;52068;50.710;14.492;2023-08-01T05:15:10;23.55;53.25
65472;DHT22;52068;50.710;14.492;2023-08-01T05:17:35;23.55;53.28
65472;DHT22;52068;50.710;14.492;2023-08-01T05:20:01;23.57;53.27
65472;DHT22;52068;50.710;14.492;2023-08-01T05:22:28;23.54;53.29
65472;DHT22;52068;50.710;14.492;2023-08-01T05:24:53;23.55;53.30
65472;DHT22;52068;50.710;14.492;2023-08-01T05:27:19;23.55;53.31
65472;DHT22;52068;50.710;14.492;2023-08-01T05:29:44;23.57;53.35
65472;DHT22;52068;50.710;14.492;2023-08-01T05:32:09;23.55;53.35
65472;DHT22;52068;50.710;14.492;2023-08-01T05:34:35;23.55;53.33
65472;DHT22;52068;50.710;14.492;2023-08-01T05:37:00;23.54;53.37
65472;DHT22;52068;50.710;14.492;2023-08-01T05:39:26;23.54;53.37
65472;DHT22;52068;50.710;14.492;2023-08-01T05:41:51;23.55;53.35
65472;DHT22;52068;50.710;14.492;2023-08-01T05:44:16;23.55;53.36
65472;DHT22;52068;50.710;14.492;2023-08-01T05:46:42;23.54;53.40
65472;DHT22;52068;50.710;14.492;2023-08-01T05:49:07;23.54;53.41
65472;DHT22;52068;50.710;14.492;2023-08-01T05:51:33;23.54;53.41
65472;DHT22;52068;50.710;14.492;2023-08-01T05:53:58;23.55;53.42
65472;DHT22;52068;50.710;14.492;2023-08-01T05:56:23;23.55;53.42
65472;DHT22;52068;50.710;14.492;2023-08-01T05:58:49;23.52;53.42
65472;DHT22;52068;50.710;14.492;2023-08-01T06:01:16;23.54;53.45
65472;DHT22;52068;50.710;14.492;2023-08-01T06:03:42;23.55;53.45
65472;DHT22;52068;50.710;14.492;2023-08-01T06:06:08;23.55;53.42
65472;DHT22;52068;50.710;14.492;2023-08-01T06:08:33;23.57;53.45
65472;DHT22;52068;50.710;14.492;2023-08-01T06:10:59;23.55;53.50
65472;DHT22;52068;50.710;14.492;2023-08-01T06:13:24;23.55;53.46
65472;DHT22;52068;50.710;14.492;2023-08-01T06:15:49;23.55;53.41
65472;DHT22;52068;50.710;14.492;2023-08-01T06:18:15;23.57;53.44
65472;DHT22;52068;50.710;14.492;2023-08-01T06:20:40;23.58;53.44
65472;DHT22;52068;50.710;14.492;2023-08-01T06:23:06;23.55;53.45
65472;DHT22;52068;50.710;14.492;2023-08-01T06:25:31;23.57;53.45
65472;DHT22;52068;50.710;14.492;2023-08-01T06:27:56;23.57;53.44
65472;DHT22;52068;50.710;14.492;2023-08-01T06:30:22;23.55;53.49
65472;DHT22;52068;50.710;14.492;2023-08-01T06:32:47;23.55;53.53
65472;DHT22;52068;50.710;14.492;2023-08-01T06:35:13;23.55;53.54
65472;DHT22;52068;50.710;14.492;2023-08-01T06:37:38;23.57;53.56
65472;DHT22;52068;50.710;14.492;2023-08-01T06:40:04;23.57;53.60
65472;DHT22;52068;50.710;14.492;2023-08-01T06:42:30;23.55;53.55
65472;DHT22;52068;50.710;14.492;2023-08-01T06:44:55;23.57;53.56
65472;DHT22;52068;50.710;14.492;2023-08-01T06:47:20;23.55;53.55
65472;DHT22;52068;50.710;14.492;2023-08-01T06:49:46;23.52;53.55
65472;DHT22;52068;50.710;14.492;2023-08-01T06:52:11;23.55;53.55
65472;DHT22;52068;50.710;14.492;2023-08-01T06:54:36;23.55;53.64
65472;DHT22;52068;50.710;14.492;2023-08-01T06:57:02;23.55;53.70
65472;DHT22;52068;50.710;14.492;2023-08-01T06:59:27;23.55;53.84
65472;DHT22;52068;50.710;14.492;2023-08-01T07:01:53;23.55;53.77
65472;DHT22;52068;50.710;14.492;2023-08-01T07:04:19;23.54;53.82
65472;DHT22;52068;50.710;14.492;2023-08-01T07:06:44;23.52;53.84
65472;DHT22;52068;50.710;14.492;2023-08-01T07:09:09;23.54;53.82
65472;DHT22;52068;50.710;14.492;2023-08-01T07:11:35;23.54;53.92
65472;DHT22;52068;50.710;14.492;2023-08-01T07:14:01;23.54;53.92
65472;DHT22;52068;50.710;14.492;2023-08-01T07:16:26;23.52;54.00
65472;DHT22;52068;50.710;14.492;2023-08-01T07:18:51;23.52;53.94
65472;DHT22;52068;50.710;14.492;2023-08-01T07:21:17;23.54;54.06
65472;DHT22;52068;50.710;14.492;2023-08-01T07:23:43;23.51;54.14
65472;DHT22;52068;50.710;14.492;2023-08-01T07:26:08;23.50;54.15
65472;DHT22;52068;50.710;14.492;2023-08-01T07:28:34;23.50;54.23
65472;DHT22;52068;50.710;14.492;2023-08-01T07:31:00;23.48;54.20
65472;DHT22;52068;50.710;14.492;2023-08-01T07:33:26;23.48;54.09
65472;DHT22;52068;50.710;14.492;2023-08-01T07:35:51;23.50;54.06
65472;DHT22;52068;50.710;14.492;2023-08-01T07:38:17;23.50;53.97
65472;DHT22;52068;50.710;14.492;2023-08-01T07:40:42;23.47;53.86
65472;DHT22;52068;50.710;14.492;2023-08-01T07:43:07;23.47;53.94
65472;DHT22;52068;50.710;14.492;2023-08-01T07:45:36;23.50;53.98
65472;DHT22;52068;50.710;14.492;2023-08-01T07:48:02;23.48;53.87
65472;DHT22;52068;50.710;14.492;2023-08-01T07:50:27;23.48;53.91
65472;DHT22;52068;50.710;14.492;2023-08-01T07:52:53;23.47;53.81
65472;DHT22;52068;50.710;14.492;2023-08-01T07:55:19;23.47;53.91
65472;DHT22;52068;50.710;14.492;2023-08-01T07:57:46;23.48;53.90
65472;DHT22;52068;50.710;14.492;2023-08-01T08:00:11;23.47;53.86
65472;DHT22;52068;50.710;14.492;2023-08-01T08:02:37;23.47;54.00
65472;DHT22;52068;50.710;14.492;2023-08-01T08:05:02;23.50;53.91
65472;DHT22;52068;50.710;14.492;2023-08-01T08:07:28;23.48;53.92
65472;DHT22;52068;50.710;14.492;2023-08-01T08:09:53;23.50;53.97
65472;DHT22;52068;50.710;14.492;2023-08-01T08:12:21;23.48;54.13
65472;DHT22;52068;50.710;14.492;2023-08-01T08:14:46;23.47;54.10
65472;DHT22;52068;50.710;14.492;2023-08-01T08:17:12;23.47;54.14
65472;DHT22;52068;50.710;14.492;2023-08-01T08:19:37;23.47;54.28
65472;DHT22;52068;50.710;14.492;2023-08-01T08:22:03;23.45;54.18
65472;DHT22;52068;50.710;14.492;2023-08-01T08:24:28;23.44;54.26
65472;DHT22;52068;50.710;14.492;2023-08-01T08:26:54;23.43;54.21
65472;DHT22;52068;50.710;14.492;2023-08-01T08:29:20;23.44;54.39
65472;DHT22;52068;50.710;14.492;2023-08-01T08:31:45;23.43;54.32
65472;DHT22;52068;50.710;14.492;2023-08-01T08:34:10;23.41;54.45
65472;DHT22;52068;50.710;14.492;2023-08-01T08:36:36;23.43;54.49
65472;DHT22;52068;50.710;14.492;2023-08-01T08:39:01;23.40;54.32
65472;DHT22;52068;50.710;14.492;2023-08-01T08:41:30;23.38;54.43
65472;DHT22;52068;50.710;14.492;2023-08-01T08:43:57;23.40;54.54
65472;DHT22;52068;50.710;14.492;2023-08-01T08:46:29;23.38;54.35
65472;DHT22;52068;50.710;14.492;2023-08-01T08:48:56;23.40;54.28
65472;DHT22;52068;50.710;14.492;2023-08-01T08:51:23;23.38;54.39
65472;DHT22;52068;50.710;14.492;2023-08-01T08:53:53;23.37;54.35
65472;DHT22;52068;50.710;14.492;2023-08-01T08:56:20;23.37;54.38
65472;DHT22;52068;50.710;14.492;2023-08-01T08:58:45;23.43;54.42
65472;DHT22;52068;50.710;14.492;2023-08-01T09:01:12;23.40;54.37
65472;DHT22;52068;50.710;14.492;2023-08-01T09:03:38;23.41;54.41
65472;DHT22;52068;50.710;14.492;2023-08-01T09:06:14;23.41;54.40
65472;DHT22;52068;50.710;14.492;2023-08-01T09:08:47;23.41;54.39
65472;DHT22;52068;50.710;14.492;2023-08-01T09:11:15;23.43;54.40
65472;DHT22;52068;50.710;14.492;2023-08-01T09:13:40;23.43;54.54
65472;DHT22;52068;50.710;14.492;2023-08-01T09:16:06;23.43;54.60
65472;DHT22;52068;50.710;14.492;2023-08-01T09:18:32;23.44;54.61
65472;DHT22;52068;50.710;14.492;2023-08-01T09:20:57;23.45;54.51
65472;DHT22;52068;50.710;14.492;2023-08-01T09:23:27;23.47;54.59
65472;DHT22;52068;50.710;14.492;2023-08-01T09:25:52;23.47;54.62
65472;DHT22;52068;50.710;14.492;2023-08-01T09:28:20;23.45;54.54
65472;DHT22;52068;50.710;14.492;2023-08-01T09:30:53;23.47;54.55
65472;DHT22;52068;50.710;14.492;2023-08-01T09:33:20;23.50;54.55
65472;DHT22;52068;50.710;14.492;2023-08-01T09:35:51;23.50;54.44
65472;DHT22;52068;50.710;14.492;2023-08-01T09:38:17;23.48;54.49
65472;DHT22;52068;50.710;14.492;2023-08-01T09:40:45;23.52;54.49
65472;DHT22;52068;50.710;14.492;2023-08-01T09:43:11;23.51;54.42
65472;DHT22;52068;50.710;14.492;2023-08-01T09:45:38;23.50;54.51
65472;DHT22;52068;50.710;14.492;2023-08-01T09:48:27;23.51;54.29
65472;DHT22;52068;50.710;14.492;2023-08-01T09:51:08;23.54;54.50
65472;DHT22;52068;50.710;14.492;2023-08-01T09:53:35;23.54;54.58
65472;DHT22;52068;50.710;14.492;2023-08-01T09:56:01;23.55;54.48
65472;DHT22;52068;50.710;14.492;2023-08-01T09:58:34;23.58;54.65
65472;DHT22;52068;50.710;14.492;2023-08-01T10:01:00;23.57;54.42
65472;DHT22;52068;50.710;14.492;2023-08-01T10:03:29;23.58;54.50
65472;DHT22;52068;50.710;14.492;2023-08-01T10:05:55;23.59;54.39
65472;DHT22;52068;50.710;14.492;2023-08-01T10:08:21;23.61;54.59
65472;DHT22;52068;50.710;14.492;2023-08-01T10:10:47;23.64;54.44
65472;DHT22;52068;50.710;14.492;2023-08-01T10:13:13;23.64;54.40
65472;DHT22;52068;50.710;14.492;2023-08-01T10:15:39;23.62;54.37
65472;DHT22;52068;50.710;14.492;2023-08-01T10:18:05;23.62;54.40
65472;DHT22;52068;50.710;14.492;2023-08-01T10:20:31;23.64;54.36
65472;DHT22;52068;50.710;14.492;2023-08-01T10:22:57;23.64;54.42
65472;DHT22;52068;50.710;14.492;2023-08-01T10:25:24;23.66;54.43
65472;DHT22;52068;50.710;14.492;2023-08-01T10:28:00;23.68;54.25
65472;DHT22;52068;50.710;14.492;2023-08-01T10:30:27;23.66;54.10
65472;DHT22;52068;50.710;14.492;2023-08-01T10:32:54;23.66;54.19
65472;DHT22;52068;50.710;14.492;2023-08-01T10:35:34;23.69;54.10
65472;DHT22;52068;50.710;14.492;2023-08-01T10:38:12;23.68;54.05
65472;DHT22;52068;50.710;14.492;2023-08-01T10:40:41;23.71;54.06
65472;DHT22;52068;50.710;14.492;2023-08-01T10:43:24;23.69;54.22
65472;DHT22;52068;50.710;14.492;2023-08-01T10:46:05;23.69;54.17
65472;DHT22;52068;50.710;14.492;2023-08-01T10:48:30;23.74;53.99
65472;DHT22;52068;50.710;14.492;2023-08-01T10:50:56;23.72;53.97
65472;DHT22;52068;50.710;14.492;2023-08-01T10:53:22;23.71;53.90
65472;DHT22;52068;50.710;14.492;2023-08-01T10:55:48;23.72;53.90
65472;DHT22;52068;50.710;14.492;2023-08-01T10:58:14;23.72;53.85
65472;DHT22;52068;50.710;14.492;2023-08-01T11:00:42;23.72;53.89
65472;DHT22;52068;50.710;14.492;2023-08-01T11:03:07;23.74;53.81
65472;DHT22;52068;50.710;14.492;2023-08-01T11:05:32;23.72;53.78
65472;DHT22;52068;50.710;14.492;2023-08-01T11:08:00;23.72;53.73
65472;DHT22;52068;50.710;14.492;2023-08-01T11:10:27;23.72;53.60
65472;DHT22;52068;50.710;14.492;2023-08-01T11:12:54;23.71;53.73
65472;DHT22;52068;50.710;14.492;2023-08-01T11:15:20;23.71;53.72
65472;DHT22;52068;50.710;14.492;2023-08-01T11:17:53;23.72;53.71
65472;DHT22;52068;50.710;14.492;2023-08-01T11:20:20;23.72;53.81
65472;DHT22;52068;50.710;14.492;2023-08-01T11:22:55;23.71;53.85
65472;DHT22;52068;50.710;14.492;2023-08-01T11:25:34;23.75;53.94
65472;DHT22;52068;50.710;14.492;2023-08-01T11:28:08;23.75;53.92
65472;DHT22;52068;50.710;14.492;2023-08-01T11:30:34;23.75;53.84
65472;DHT22;52068;50.710;14.492;2023-08-01T11:33:00;23.74;53.81
65472;DHT22;52068;50.710;14.492;2023-08-01T11:35:25;23.72;53.89
65472;DHT22;52068;50.710;14.492;2023-08-01T11:37:51;23.75;53.80
65472;DHT22;52068;50.710;14.492;2023-08-01T11:40:17;23.75;53.70
65472;DHT22;52068;50.710;14.492;2023-08-01T11:42:48;23.72;53.65
65472;DHT22;52068;50.710;14.492;2023-08-01T11:45:16;23.75;53.38
65472;DHT22;52068;50.710;14.492;2023-08-01T11:47:46;23.75;53.31
65472;DHT22;52068;50.710;14.492;2023-08-01T11:50:11;23.78;53.30
65472;DHT22;52068;50.710;14.492;2023-08-01T11:52:37;23.78;53.55
65472;DHT22;52068;50.710;14.492;2023-08-01T11:55:02;23.76;53.23
65472;DHT22;52068;50.710;14.492;2023-08-01T11:57:28;23.81;53.13
65472;DHT22;52068;50.710;14.492;2023-08-01T11:59:55;23.79;53.33
65472;DHT22;52068;50.710;14.492;2023-08-01T12:02:25;23.82;52.97
65472;DHT22;52068;50.710;14.492;2023-08-01T12:04:51;23.79;52.96
65472;DHT22;52068;50.710;14.492;2023-08-01T12:07:17;23.82;52.91
65472;DHT22;52068;50.710;14.492;2023-08-01T12:09:44;23.82;52.92
65472;DHT22;52068;50.710;14.492;2023-08-01T12:12:09;23.82;52.81
65472;DHT22;52068;50.710;14.492;2023-08-01T12:14:41;23.85;52.78
65472;DHT22;52068;50.710;14.492;2023-08-01T12:17:06;23.85;52.90
65472;DHT22;52068;50.710;14.492;2023-08-01T12:19:32;23.86;52.87
65472;DHT22;52068;50.710;14.492;2023-08-01T12:21:59;23.85;52.87
65472;DHT22;52068;50.710;14.492;2023-08-01T12:24:24;23.86;52.88
65472;DHT22;52068;50.710;14.492;2023-08-01T12:26:49;23.90;52.77
65472;DHT22;52068;50.710;14.492;2023-08-01T12:29:15;23.90;52.84
65472;DHT22;52068;50.710;14.492;2023-08-01T12:31:40;23.92;52.88
65472;DHT22;52068;50.710;14.492;2023-08-01T12:34:05;23.93;52.99
65472;DHT22;52068;50.710;14.492;2023-08-01T12:36:31;23.93;52.91
65472;DHT22;52068;50.710;14.492;2023-08-01T12:38:56;23.96;52.96
65472;DHT22;52068;50.710;14.492;2023-08-01T12:41:21;23.95;52.83
65472;DHT22;52068;50.710;14.492;2023-08-01T12:43:47;23.98;52.85
65472;DHT22;52068;50.710;14.492;2023-08-01T12:46:12;23.96;52.82
65472;DHT22;52068;50.710;14.492;2023-08-01T12:48:37;23.96;52.78
65472;DHT22;52068;50.710;14.492;2023-08-01T12:51:03;24.01;52.74
65472;DHT22;52068;50.710;14.492;2023-08-01T12:53:28;23.98;52.82
65472;DHT22;52068;50.710;14.492;2023-08-01T12:55:54;23.99;52.81
65472;DHT22;52068;50.710;14.492;2023-08-01T12:58:19;23.96;52.71
65472;DHT22;52068;50.710;14.492;2023-08-01T13:00:44;23.98;52.77
65472;DHT22;52068;50.710;14.492;2023-08-01T13:03:11;23.99;52.76
65472;DHT22;52068;50.710;14.492;2023-08-01T13:05:38;23.98;52.70
65472;DHT22;52068;50.710;14.492;2023-08-01T13:08:04;23.99;52.70
65472;DHT22;52068;50.710;14.492;2023-08-01T13:10:31;23.96;52.70
65472;DHT22;52068;50.710;14.492;2023-08-01T13:12:57;23.98;52.67
65472;DHT22;52068;50.710;14.492;2023-08-01T13:15:23;23.98;52.71
65472;DHT22;52068;50.710;14.492;2023-08-01T13:17:48;23.98;52.70
65472;DHT22;52068;50.710;14.492;2023-08-01T13:20:14;23.98;52.79
65472;DHT22;52068;50.710;14.492;2023-08-01T13:22:39;23.96;52.80
65472;DHT22;52068;50.710;14.492;2023-08-01T13:25:05;23.96;52.80
65472;DHT22;52068;50.710;14.492;2023-08-01T13:29:58;23.93;52.76
65472;DHT22;52068;50.710;14.492;2023-08-01T13:32:23;23.96;52.75
65472;DHT22;52068;50.710;14.492;2023-08-01T13:34:49;23.95;52.76
65472;DHT22;52068;50.710;14.492;2023-08-01T13:37:14;23.96;52.78
65472;DHT22;52068;50.710;14.492;2023-08-01T13:39:39;23.98;52.81
65472;DHT22;52068;50.710;14.492;2023-08-01T13:42:05;23.96;52.78
65472;DHT22;52068;50.710;14.492;2023-08-01T13:44:30;23.98;52.79
65472;DHT22;52068;50.710;14.492;2023-08-01T13:46:56;23.98;52.79
65472;DHT22;52068;50.710;14.492;2023-08-01T13:49:21;23.95;52.81
65472;DHT22;52068;50.710;14.492;2023-08-01T13:51:47;23.95;52.70
65472;DHT22;52068;50.710;14.492;2023-08-01T13:54:12;23.98;52.76
65472;DHT22;52068;50.710;14.492;2023-08-01T13:56:38;23.95;52.64
65472;DHT22;52068;50.710;14.492;2023-08-01T13:59:03;23.96;52.66
65472;DHT22;52068;50.710;14.492;2023-08-01T14:01:28;23.93;52.59
65472;DHT22;52068;50.710;14.492;2023-08-01T14:03:54;23.95;52.55
65472;DHT22;52068;50.710;14.492;2023-08-01T14:06:19;23.95;52.55
65472;DHT22;52068;50.710;14.492;2023-08-01T14:08:44;23.98;52.54
65472;DHT22;52068;50.710;14.492;2023-08-01T14:11:10;23.98;52.50
65472;DHT22;52068;50.710;14.492;2023-08-01T14:13:36;23.95;52.47
65472;DHT22;52068;50.710;14.492;2023-08-01T14:16:02;23.93;52.50
65472;DHT22;52068;50.710;14.492;2023-08-01T14:18:28;23.95;52.63
65472;DHT22;52068;50.710;14.492;2023-08-01T14:20:54;23.92;52.62
65472;DHT22;52068;50.710;14.492;2023-08-01T14:23:20;23.93;52.62
65472;DHT22;52068;50.710;14.492;2023-08-01T14:25:45;23.93;52.57
65472;DHT22;52068;50.710;14.492;2023-08-01T14:28:11;23.93;52.58
65472;DHT22;52068;50.710;14.492;2023-08-01T14:30:37;23.92;52.59
65472;DHT22;52068;50.710;14.492;2023-08-01T14:33:04;23.93;52.50
65472;DHT22;52068;50.710;14.492;2023-08-01T14:35:29;23.95;52.50
65472;DHT22;52068;50.710;14.492;2023-08-01T14:37:55;23.98;52.60
65472;DHT22;52068;50.710;14.492;2023-08-01T14:40:21;23.98;52.44
65472;DHT22;52068;50.710;14.492;2023-08-01T14:42:47;23.96;52.52
65472;DHT22;52068;50.710;14.492;2023-08-01T14:45:12;23.99;52.48
65472;DHT22;52068;50.710;14.492;2023-08-01T14:47:39;23.98;52.53
65472;DHT22;52068;50.710;14.492;2023-08-01T14:50:06;23.96;52.53
65472;DHT22;52068;50.710;14.492;2023-08-01T14:52:31;23.99;52.46
65472;DHT22;52068;50.710;14.492;2023-08-01T14:54:57;23.96;52.49
65472;DHT22;52068;50.710;14.492;2023-08-01T14:57:22;23.95;52.54
65472;DHT22;52068;50.710;14.492;2023-08-01T14:59:48;23.99;52.53
65472;DHT22;52068;50.710;14.492;2023-08-01T15:02:14;23.98;52.53
65472;DHT22;52068;50.710;14.492;2023-08-01T15:04:39;23.96;52.49
65472;DHT22;52068;50.710;14.492;2023-08-01T15:07:05;23.95;52.53
65472;DHT22;52068;50.710;14.492;2023-08-01T15:09:30;23.92;52.43
65472;DHT22;52068;50.710;14.492;2023-08-01T15:11:56;23.93;52.52